sensor_id;sensor_type;location;lat;lon;timestamp;temperature;humidity
6724;DHT22;3399;52.530;13.304;2023-02-24T00:01:53;6.80;99.90
6724;DHT22;3399;52.530;13.304;2023-02-24T00:04:25;6.80;99.90
6724;DHT22;3399;52.530;13.304;2023-02-24T00:06:51;6.80;99.90
6724;DHT22;3399;52.530;13.304;2023-02-24T00:09:18;6.70;99.90
6724;DHT22;3399;52.530;13.304;2023-02-24T00:11:51;6.70;99.90
6724;DHT22;3399;52.530;13.304;2023-02-24T00:14:16;6.70;99.90
6724;DHT22;3399;52.530;13.304;2023-02-24T00:16:43;6.70;99.90
6724;DHT22;3399;52.530;13.304;2023-02-24T00:19:14;6.60;99.90
6724;DHT22;3399;52.530;13.304;2023-02-24T00:21:41;6.60;99.90
6724;DHT22;3399;52.530;13.304;2023-02-24T00:24:07;6.50;99.90
6724;DHT22;3399;52.530;13.304;2023-02-24T00:26:33;6.50;99.90
6724;DHT22;3399;52.530;13.304;2023-02-24T00:28:59;6.50;99.90
6724;DHT22;3399;52.530;13.304;2023-02-24T00:31:27;6.50;99.90
6724;DHT22;3399;52.530;13.304;2023-02-24T00:33:57;6.50;99.90
6724;DHT22;3399;52.530;13.304;2023-02-24T00:36:23;6.50;99.90
6724;DHT22;3399;52.530;13.304;2023-02-24T00:38:51;6.40;99.90
6724;DHT22;3399;52.530;13.304;2023-02-24T00:41:21;6.30;99.90
6724;DHT22;3399;52.530;13.304;2023-02-24T00:43:48;6.10;99.90
6724;DHT22;3399;52.530;13.304;2023-02-24T00:46:16;6.00;99.90
6724;DHT22;3399;52.530;13.304;2023-02-24T00:48:48;5.90;99.90
6724;DHT22;3399;52.530;13.304;2023-02-24T00:51:16;5.80;99.90
6724;DHT22;3399;52.530;13.304;2023-02-24T00:53:48;5.70;99.90
6724;DHT22;3399;52.530;13.304;2023-02-24T00:56:13;5.60;99.90
6724;DHT22;3399;52.530;13.304;2023-02-24T00:58:43;5.60;99.90
6724;DHT22;3399;52.530;13.304;2023-02-24T01:01:21;5.60;99.90
6724;DHT22;3399;52.530;13.304;2023-02-24T01:03:48;5.70;99.90
6724;DHT22;3399;52.530;13.304;2023-02-24T01:06:15;5.80;99.90
6724;DHT22;3399;52.530;13.304;2023-02-24T01:08:41;5.70;99.90
6724;DHT22;3399;52.530;13.304;2023-02-24T01:11:13;5.60;99.90
6724;DHT22;3399;52.530;13.304;2023-02-24T01:13:57;5.60;99.90
6724;DHT22;3399;52.530;13.304;2023-02-24T01:16:22;5.50;99.90
6724;DHT22;3399;52.530;13.304;2023-02-24T01:18:48;5.40;99.90
6724;DHT22;3399;52.530;13.304;2023-02-24T01:21:15;5.40;99.90
6724;DHT22;3399;52.530;13.304;2023-02-24T01:23:42;5.30;99.90
6724;DHT22;3399;52.530;13.304;2023-02-24T01:26:08;5.30;99.90
6724;DHT22;3399;52.530;13.304;2023-02-24T01:28:35;5.20;99.90
6724;DHT22;3399;52.530;13.304;2023-02-24T01:31:03;5.20;99.90
6724;DHT22;3399;52.530;13.304;2023-02-24T01:33:30;5.10;99.90
6724;DHT22;3399;52.530;13.304;2023-02-24T01:36:07;5.00;99.90
6724;DHT22;3399;52.530;13.304;2023-02-24T01:38:32;5.00;99.90
6724;DHT22;3399;52.530;13.304;2023-02-24T01:41:01;4.90;99.90
6724;DHT22;3399;52.530;13.304;2023-02-24T01:43:30;4.90;99.90
6724;DHT22;3399;52.530;13.304;2023-02-24T01:45:56;4.80;99.90
6724;DHT22;3399;52.530;13.304;2023-02-24T01:48:22;4.80;99.90
6724;DHT22;3399;52.530;13.304;2023-02-24T01:50:49;4.70;99.90
6724;DHT22;3399;52.530;13.304;2023-02-24T01:53:15;4.60;99.90
6724;DHT22;3399;52.530;13.304;2023-02-24T01:55:49;4.60;99.90
6724;DHT22;3399;52.530;13.304;2023-02-24T01:58:24;4.60;99.90
6724;DHT22;3399;52.530;13.304;2023-02-24T02:00:50;4.50;99.90
6724;DHT22;3399;52.530;13.304;2023-02-24T02:03:35;4.50;99.90
6724;DHT22;3399;52.530;13.304;2023-02-24T02:06:04;4.50;99.90
6724;DHT22;3399;52.530;13.304;2023-02-24T02:08:31;4.40;99.90
6724;DHT22;3399;52.530;13.304;2023-02-24T02:11:02;4.40;99.90
6724;DHT22;3399;52.530;13.304;2023-02-24T02:13:30;4.40;99.90
6724;DHT22;3399;52.530;13.304;2023-02-24T02:16:22;4.40;99.90
6724;DHT22;3399;52.530;13.304;2023-02-24T02:19:01;4.30;99.90
6724;DHT22;3399;52.530;13.304;2023-02-24T02:24:40;4.30;99.90
6724;DHT22;3399;52.530;13.304;2023-02-24T02:35:53;4.00;99.90
6724;DHT22;3399;52.530;13.304;2023-02-24T02:38:54;4.00;99.90
6724;DHT22;3399;52.530;13.304;2023-02-24T02:41:25;4.00;99.90
6724;DHT22;3399;52.530;13.304;2023-02-24T02:44:08;3.90;99.90
6724;DHT22;3399;52.530;13.304;2023-02-24T02:46:45;3.90;99.90
6724;DHT22;3399;52.530;13.304;2023-02-24T02:49:20;3.90;99.90
6724;DHT22;3399;52.530;13.304;2023-02-24T02:51:52;3.90;99.90
6724;DHT22;3399;52.530;13.304;2023-02-24T02:59:46;3.80;99.90
6724;DHT22;3399;52.530;13.304;2023-02-24T03:02:15;3.80;99.90
6724;DHT22;3399;52.530;13.304;2023-02-24T03:04:55;3.80;99.90
6724;DHT22;3399;52.530;13.304;2023-02-24T03:07:25;3.80;99.90
6724;DHT22;3399;52.530;13.304;2023-02-24T03:09:58;3.80;99.90
6724;DHT22;3399;52.530;13.304;2023-02-24T03:12:27;3.80;99.90
6724;DHT22;3399;52.530;13.304;2023-02-24T03:14:59;3.80;99.90
6724;DHT22;3399;52.530;13.304;2023-02-24T03:17:29;3.80;99.90
6724;DHT22;3399;52.530;13.304;2023-02-24T03:20:04;3.70;99.90
6724;DHT22;3399;52.530;13.304;2023-02-24T03:23:03;3.70;99.90
6724;DHT22;3399;52.530;13.304;2023-02-24T03:25:39;3.70;99.90
6724;DHT22;3399;52.530;13.304;2023-02-24T03:28:15;3.70;99.90
6724;DHT22;3399;52.530;13.304;2023-02-24T03:30:52;3.70;99.90
6724;DHT22;3399;52.530;13.304;2023-02-24T03:33:27;3.70;99.90
6724;DHT22;3399;52.530;13.304;2023-02-24T03:35:56;3.70;99.90
6724;DHT22;3399;52.530;13.304;2023-02-24T03:38:29;3.70;99.90
6724;DHT22;3399;52.530;13.304;2023-02-24T03:40:56;3.70;99.90
6724;DHT22;3399;52.530;13.304;2023-02-24T03:43:27;3.70;99.90
6724;DHT22;3399;52.530;13.304;2023-02-24T03:45:54;3.70;99.90
6724;DHT22;3399;52.530;13.304;2023-02-24T03:48:20;3.70;99.90
6724;DHT22;3399;52.530;13.304;2023-02-24T03:50:46;3.80;99.90
6724;DHT22;3399;52.530;13.304;2023-02-24T03:58:59;3.70;99.90
6724;DHT22;3399;52.530;13.304;2023-02-24T04:01:59;3.70;99.90
6724;DHT22;3399;52.530;13.304;2023-02-24T04:04:43;3.70;99.90
6724;DHT22;3399;52.530;13.304;2023-02-24T04:07:20;3.80;99.90
6724;DHT22;3399;52.530;13.304;2023-02-24T04:15:42;3.70;99.90
6724;DHT22;3399;52.530;13.304;2023-02-24T04:18:16;3.80;99.90
6724;DHT22;3399;52.530;13.304;2023-02-24T04:20:43;3.80;99.90
6724;DHT22;3399;52.530;13.304;2023-02-24T04:23:14;3.80;99.90
6724;DHT22;3399;52.530;13.304;2023-02-24T04:25:43;3.80;99.90
6724;DHT22;3399;52.530;13.304;2023-02-24T04:28:11;3.70;99.90
6724;DHT22;3399;52.530;13.304;2023-02-24T04:30:40;3.70;99.90
6724;DHT22;3399;52.530;13.304;2023-02-24T04:33:06;3.70;99.90
6724;DHT22;3399;52.530;13.304;2023-02-24T04:35:32;3.70;99.90
6724;DHT22;3399;52.530;13.304;2023-02-24T04:37:58;3.70;99.90
6724;DHT22;3399;52.530;13.304;2023-02-24T04:40:24;3.70;99.90
6724;DHT22;3399;52.530;13.304;2023-02-24T04:42:51;3.70;99.90
6724;DHT22;3399;52.530;13.304;2023-02-24T04:45:27;3.70;99.90
6724;DHT22;3399;52.530;13.304;2023-02-24T04:47:55;3.70;99.90
6724;DHT22;3399;52.530;13.304;2023-02-24T04:50:26;3.70;99.90
6724;DHT22;3399;52.530;13.304;2023-02-24T04:52:54;3.70;99.90
6724;DHT22;3399;52.530;13.304;2023-02-24T04:55:23;3.70;99.90
6724;DHT22;3399;52.530;13.304;2023-02-24T04:57:52;3.60;99.90
6724;DHT22;3399;52.530;13.304;2023-02-24T05:00:18;3.60;99.90
6724;DHT22;3399;52.530;13.304;2023-02-24T05:02:58;3.70;99.90
6724;DHT22;3399;52.530;13.304;2023-02-24T05:05:26;3.80;99.90
6724;DHT22;3399;52.530;13.304;2023-02-24T05:07:57;3.80;99.90
6724;DHT22;3399;52.530;13.304;2023-02-24T05:10:35;3.80;99.90
6724;DHT22;3399;52.530;13.304;2023-02-24T05:13:00;3.80;99.90
6724;DHT22;3399;52.530;13.304;2023-02-24T05:15:27;3.70;99.90
6724;DHT22;3399;52.530;13.304;2023-02-24T05:17:59;3.60;99.90
6724;DHT22;3399;52.530;13.304;2023-02-24T05:20:26;3.50;99.90
6724;DHT22;3399;52.530;13.304;2023-02-24T05:23:11;3.50;99.90
6724;DHT22;3399;52.530;13.304;2023-02-24T05:25:37;3.50;99.90
6724;DHT22;3399;52.530;13.304;2023-02-24T05:28:04;3.50;99.90
6724;DHT22;3399;52.530;13.304;2023-02-24T05:30:29;3.50;99.90
6724;DHT22;3399;52.530;13.304;2023-02-24T05:32:55;3.40;99.90
6724;DHT22;3399;52.530;13.304;2023-02-24T05:35:21;3.50;99.90
6724;DHT22;3399;52.530;13.304;2023-02-24T05:37:46;3.50;99.90
6724;DHT22;3399;52.530;13.304;2023-02-24T05:40:12;3.60;99.90
6724;DHT22;3399;52.530;13.304;2023-02-24T05:42:39;3.60;99.90
6724;DHT22;3399;52.530;13.304;2023-02-24T05:45:07;3.60;99.90
6724;DHT22;3399;52.530;13.304;2023-02-24T05:47:33;3.60;99.90
6724;DHT22;3399;52.530;13.304;2023-02-24T05:50:00;3.60;99.90
6724;DHT22;3399;52.530;13.304;2023-02-24T05:52:27;3.60;99.90
6724;DHT22;3399;52.530;13.304;2023-02-24T05:54:52;3.60;99.90
6724;DHT22;3399;52.530;13.304;2023-02-24T05:57:19;3.50;99.90
6724;DHT22;3399;52.530;13.304;2023-02-24T05:59:47;3.50;99.90
6724;DHT22;3399;52.530;13.304;2023-02-24T06:02:17;3.50;99.90
6724;DHT22;3399;52.530;13.304;2023-02-24T06:04:47;3.40;99.90
6724;DHT22;3399;52.530;13.304;2023-02-24T06:07:23;3.60;99.90
6724;DHT22;3399;52.530;13.304;2023-02-24T06:09:51;3.60;99.90
6724;DHT22;3399;52.530;13.304;2023-02-24T06:12:24;3.60;99.90
6724;DHT22;3399;52.530;13.304;2023-02-24T06:14:50;3.60;99.90
6724;DHT22;3399;52.530;13.304;2023-02-24T06:17:17;3.70;99.90
6724;DHT22;3399;52.530;13.304;2023-02-24T06:19:44;3.60;99.90
6724;DHT22;3399;52.530;13.304;2023-02-24T06:22:15;3.60;99.90
6724;DHT22;3399;52.530;13.304;2023-02-24T06:24:41;3.60;99.90
6724;DHT22;3399;52.530;13.304;2023-02-24T06:27:12;3.60;99.90
6724;DHT22;3399;52.530;13.304;2023-02-24T06:29:47;3.60;99.90
6724;DHT22;3399;52.530;13.304;2023-02-24T06:32:16;3.60;99.90
6724;DHT22;3399;52.530;13.304;2023-02-24T06:34:42;3.60;99.90
6724;DHT22;3399;52.530;13.304;2023-02-24T06:37:11;3.60;99.90
6724;DHT22;3399;52.530;13.304;2023-02-24T06:39:37;3.60;99.90
6724;DHT22;3399;52.530;13.304;2023-02-24T06:42:03;3.70;99.90
6724;DHT22;3399;52.530;13.304;2023-02-24T06:44:30;3.70;99.90
6724;DHT22;3399;52.530;13.304;2023-02-24T06:46:56;3.70;99.90
6724;DHT22;3399;52.530;13.304;2023-02-24T06:49:23;3.80;99.90
6724;DHT22;3399;52.530;13.304;2023-02-24T06:51:48;3.60;99.90
6724;DHT22;3399;52.530;13.304;2023-02-24T06:54:15;3.60;99.90
6724;DHT22;3399;52.530;13.304;2023-02-24T06:56:41;3.70;99.90
6724;DHT22;3399;52.530;13.304;2023-02-24T06:59:07;3.80;99.90
6724;DHT22;3399;52.530;13.304;2023-02-24T07:01:36;3.80;99.90
6724;DHT22;3399;52.530;13.304;2023-02-24T07:04:10;3.80;99.90
6724;DHT22;3399;52.530;13.304;2023-02-24T07:06:37;3.90;99.90
6724;DHT22;3399;52.530;13.304;2023-02-24T07:09:07;3.80;99.90
6724;DHT22;3399;52.530;13.304;2023-02-24T07:11:36;3.80;99.90
6724;DHT22;3399;52.530;13.304;2023-02-24T07:14:02;3.80;99.90
6724;DHT22;3399;52.530;13.304;2023-02-24T07:16:30;3.80;99.90
6724;DHT22;3399;52.530;13.304;2023-02-24T07:19:03;3.90;99.90
6724;DHT22;3399;52.530;13.304;2023-02-24T07:21:30;3.80;99.90
6724;DHT22;3399;52.530;13.304;2023-02-24T07:24:04;4.00;99.90
6724;DHT22;3399;52.530;13.304;2023-02-24T07:26:30;3.90;99.90
6724;DHT22;3399;52.530;13.304;2023-02-24T07:28:56;3.90;99.90
6724;DHT22;3399;52.530;13.304;2023-02-24T07:31:23;3.90;99.90
6724;DHT22;3399;52.530;13.304;2023-02-24T07:33:54;3.80;99.90
6724;DHT22;3399;52.530;13.304;2023-02-24T07:36:21;3.90;99.90
6724;DHT22;3399;52.530;13.304;2023-02-24T07:38:55;3.90;99.90
6724;DHT22;3399;52.530;13.304;2023-02-24T07:41:23;3.80;99.90
6724;DHT22;3399;52.530;13.304;2023-02-24T07:43:52;3.80;99.90
6724;DHT22;3399;52.530;13.304;2023-02-24T07:46:21;3.90;99.90
6724;DHT22;3399;52.530;13.304;2023-02-24T07:48:50;3.90;99.90
6724;DHT22;3399;52.530;13.304;2023-02-24T07:51:19;3.90;99.90
6724;DHT22;3399;52.530;13.304;2023-02-24T07:53:51;3.90;99.90
6724;DHT22;3399;52.530;13.304;2023-02-24T07:56:19;4.00;99.90
6724;DHT22;3399;52.530;13.304;2023-02-24T07:58:52;4.10;99.90
6724;DHT22;3399;52.530;13.304;2023-02-24T08:01:24;4.20;99.90
6724;DHT22;3399;52.530;13.304;2023-02-24T08:03:54;4.20;99.90
6724;DHT22;3399;52.530;13.304;2023-02-24T08:06:24;4.30;99.90
6724;DHT22;3399;52.530;13.304;2023-02-24T08:08:57;4.30;99.90
6724;DHT22;3399;52.530;13.304;2023-02-24T08:11:25;4.20;99.90
6724;DHT22;3399;52.530;13.304;2023-02-24T08:13:51;4.10;99.90
6724;DHT22;3399;52.530;13.304;2023-02-24T08:16:17;4.10;99.90
6724;DHT22;3399;52.530;13.304;2023-02-24T08:18:43;4.20;99.90
6724;DHT22;3399;52.530;13.304;2023-02-24T08:21:15;4.10;99.90
6724;DHT22;3399;52.530;13.304;2023-02-24T08:23:40;4.20;99.90
6724;DHT22;3399;52.530;13.304;2023-02-24T08:26:09;4.20;99.90
6724;DHT22;3399;52.530;13.304;2023-02-24T08:28:40;4.30;99.90
6724;DHT22;3399;52.530;13.304;2023-02-24T08:31:05;4.30;99.90
6724;DHT22;3399;52.530;13.304;2023-02-24T08:33:31;4.40;99.90
6724;DHT22;3399;52.530;13.304;2023-02-24T08:35:57;4.70;99.90
6724;DHT22;3399;52.530;13.304;2023-02-24T08:38:27;4.70;99.90
6724;DHT22;3399;52.530;13.304;2023-02-24T08:41:04;4.80;99.90
6724;DHT22;3399;52.530;13.304;2023-02-24T08:43:37;5.00;99.90
6724;DHT22;3399;52.530;13.304;2023-02-24T08:48:49;5.00;99.90
6724;DHT22;3399;52.530;13.304;2023-02-24T08:51:25;5.00;99.90
6724;DHT22;3399;52.530;13.304;2023-02-24T08:53:58;5.00;99.90
6724;DHT22;3399;52.530;13.304;2023-02-24T08:56:28;4.90;99.90
6724;DHT22;3399;52.530;13.304;2023-02-24T08:58:57;4.80;99.90
6724;DHT22;3399;52.530;13.304;2023-02-24T09:01:28;4.80;99.90
6724;DHT22;3399;52.530;13.304;2023-02-24T09:04:00;4.80;99.90
6724;DHT22;3399;52.530;13.304;2023-02-24T09:06:44;4.80;99.90
6724;DHT22;3399;52.530;13.304;2023-02-24T09:09:15;4.90;99.90
6724;DHT22;3399;52.530;13.304;2023-02-24T09:11:51;5.00;99.90
6724;DHT22;3399;52.530;13.304;2023-02-24T09:14:21;5.20;99.90
6724;DHT22;3399;52.530;13.304;2023-02-24T09:16:49;5.40;99.90
6724;DHT22;3399;52.530;13.304;2023-02-24T09:22:05;5.50;99.90
6724;DHT22;3399;52.530;13.304;2023-02-24T09:24:42;5.50;99.90
6724;DHT22;3399;52.530;13.304;2023-02-24T09:27:08;5.50;99.90
6724;DHT22;3399;52.530;13.304;2023-02-24T09:29:33;5.50;99.90
6724;DHT22;3399;52.530;13.304;2023-02-24T09:32:10;5.60;99.90
6724;DHT22;3399;52.530;13.304;2023-02-24T09:34:39;5.60;99.90
6724;DHT22;3399;52.530;13.304;2023-02-24T09:37:12;5.70;99.90
6724;DHT22;3399;52.530;13.304;2023-02-24T09:39:51;5.70;99.90
6724;DHT22;3399;52.530;13.304;2023-02-24T09:42:28;5.80;99.90
6724;DHT22;3399;52.530;13.304;2023-02-24T09:45:08;5.70;99.90
6724;DHT22;3399;52.530;13.304;2023-02-24T09:47:41;5.60;99.90
6724;DHT22;3399;52.530;13.304;2023-02-24T09:52:50;5.50;99.90
6724;DHT22;3399;52.530;13.304;2023-02-24T09:55:18;5.40;99.90
6724;DHT22;3399;52.530;13.304;2023-02-24T09:58:23;5.50;99.90
6724;DHT22;3399;52.530;13.304;2023-02-24T10:03:59;5.40;99.90
6724;DHT22;3399;52.530;13.304;2023-02-24T10:06:44;5.40;99.90
6724;DHT22;3399;52.530;13.304;2023-02-24T10:09:45;5.40;99.90
6724;DHT22;3399;52.530;13.304;2023-02-24T10:14:51;5.50;99.90
6724;DHT22;3399;52.530;13.304;2023-02-24T10:17:23;5.60;99.90
6724;DHT22;3399;52.530;13.304;2023-02-24T10:19:59;5.70;99.90
6724;DHT22;3399;52.530;13.304;2023-02-24T10:22:47;5.50;99.90
6724;DHT22;3399;52.530;13.304;2023-02-24T10:25:48;5.50;99.90
6724;DHT22;3399;52.530;13.304;2023-02-24T10:28:28;5.50;99.90
6724;DHT22;3399;52.530;13.304;2023-02-24T10:31:11;5.60;99.90
6724;DHT22;3399;52.530;13.304;2023-02-24T10:34:13;5.70;99.90
6724;DHT22;3399;52.530;13.304;2023-02-24T10:36:51;5.90;99.90
6724;DHT22;3399;52.530;13.304;2023-02-24T10:39:19;6.00;99.90
6724;DHT22;3399;52.530;13.304;2023-02-24T10:41:53;6.00;99.90
6724;DHT22;3399;52.530;13.304;2023-02-24T10:44:26;5.80;99.90
6724;DHT22;3399;52.530;13.304;2023-02-24T10:47:02;5.70;99.90
6724;DHT22;3399;52.530;13.304;2023-02-24T10:49:43;5.60;99.90
6724;DHT22;3399;52.530;13.304;2023-02-24T10:52:25;5.00;99.90
6724;DHT22;3399;52.530;13.304;2023-02-24T10:55:29;4.40;99.90
6724;DHT22;3399;52.530;13.304;2023-02-24T10:58:32;4.30;99.90
6724;DHT22;3399;52.530;13.304;2023-02-24T11:01:31;4.30;99.90
6724;DHT22;3399;52.530;13.304;2023-02-24T11:04:15;4.20;99.90
6724;DHT22;3399;52.530;13.304;2023-02-24T11:07:12;4.20;99.90
6724;DHT22;3399;52.530;13.304;2023-02-24T11:09:48;3.90;99.90
6724;DHT22;3399;52.530;13.304;2023-02-24T11:12:36;3.70;99.90
6724;DHT22;3399;52.530;13.304;2023-02-24T11:15:35;3.60;99.90
6724;DHT22;3399;52.530;13.304;2023-02-24T11:18:25;3.50;99.90
6724;DHT22;3399;52.530;13.304;2023-02-24T11:20:54;3.30;99.90
6724;DHT22;3399;52.530;13.304;2023-02-24T11:23:27;3.30;99.90
6724;DHT22;3399;52.530;13.304;2023-02-24T11:25:59;3.30;99.90
6724;DHT22;3399;52.530;13.304;2023-02-24T11:28:40;3.20;99.90
6724;DHT22;3399;52.530;13.304;2023-02-24T11:34:17;3.30;99.90
6724;DHT22;3399;52.530;13.304;2023-02-24T11:39:55;2.90;99.90
6724;DHT22;3399;52.530;13.304;2023-02-24T11:42:56;2.90;99.90
6724;DHT22;3399;52.530;13.304;2023-02-24T11:45:37;2.80;99.90
6724;DHT22;3399;52.530;13.304;2023-02-24T11:48:26;2.90;99.90
6724;DHT22;3399;52.530;13.304;2023-02-24T11:51:09;2.90;99.90
6724;DHT22;3399;52.530;13.304;2023-02-24T11:56:17;3.00;99.90
6724;DHT22;3399;52.530;13.304;2023-02-24T11:59:09;2.90;99.90
6724;DHT22;3399;52.530;13.304;2023-02-24T12:01:45;2.90;99.90
6724;DHT22;3399;52.530;13.304;2023-02-24T12:04:31;3.00;99.90
6724;DHT22;3399;52.530;13.304;2023-02-24T12:09:29;3.10;99.90
6724;DHT22;3399;52.530;13.304;2023-02-24T12:12:03;3.00;99.90
6724;DHT22;3399;52.530;13.304;2023-02-24T12:14:36;3.00;99.90
6724;DHT22;3399;52.530;13.304;2023-02-24T12:17:18;3.10;99.90
6724;DHT22;3399;52.530;13.304;2023-02-24T12:20:03;3.00;99.90
6724;DHT22;3399;52.530;13.304;2023-02-24T12:22:45;3.00;99.90
6724;DHT22;3399;52.530;13.304;2023-02-24T12:25:15;2.90;99.90
6724;DHT22;3399;52.530;13.304;2023-02-24T12:33:41;3.10;99.90
6724;DHT22;3399;52.530;13.304;2023-02-24T12:39:17;3.20;99.90
6724;DHT22;3399;52.530;13.304;2023-02-24T12:41:57;3.20;99.90
6724;DHT22;3399;52.530;13.304;2023-02-24T12:44:50;3.30;99.90
6724;DHT22;3399;52.530;13.304;2023-02-24T12:50:31;3.00;99.90
6724;DHT22;3399;52.530;13.304;2023-02-24T12:53:18;2.90;99.90
6724;DHT22;3399;52.530;13.304;2023-02-24T12:56:20;2.90;99.90
6724;DHT22;3399;52.530;13.304;2023-02-24T12:58:50;2.90;99.90
6724;DHT22;3399;52.530;13.304;2023-02-24T13:01:42;3.00;99.90
6724;DHT22;3399;52.530;13.304;2023-02-24T13:15:18;2.70;99.90
6724;DHT22;3399;52.530;13.304;2023-02-24T13:17:46;2.70;99.90
6724;DHT22;3399;52.530;13.304;2023-02-24T13:20:24;2.80;99.90
6724;DHT22;3399;52.530;13.304;2023-02-24T13:22:49;2.70;99.90
6724;DHT22;3399;52.530;13.304;2023-02-24T13:25:20;2.60;99.90
6724;DHT22;3399;52.530;13.304;2023-02-24T13:27:57;2.60;99.90
6724;DHT22;3399;52.530;13.304;2023-02-24T13:30:41;2.50;99.90
6724;DHT22;3399;52.530;13.304;2023-02-24T13:35:43;2.50;99.90
6724;DHT22;3399;52.530;13.304;2023-02-24T13:38:25;2.50;99.90
6724;DHT22;3399;52.530;13.304;2023-02-24T13:46:18;2.60;99.90
6724;DHT22;3399;52.530;13.304;2023-02-24T13:55:10;2.50;99.90
6724;DHT22;3399;52.530;13.304;2023-02-24T13:58:00;2.50;99.90
6724;DHT22;3399;52.530;13.304;2023-02-24T14:00:57;2.50;99.90
6724;DHT22;3399;52.530;13.304;2023-02-24T14:03:27;2.50;99.90
6724;DHT22;3399;52.530;13.304;2023-02-24T14:05:53;2.60;99.90
6724;DHT22;3399;52.530;13.304;2023-02-24T14:08:43;2.60;99.90
6724;DHT22;3399;52.530;13.304;2023-02-24T14:11:13;2.70;99.90
6724;DHT22;3399;52.530;13.304;2023-02-24T14:13:39;2.70;99.90
6724;DHT22;3399;52.530;13.304;2023-02-24T14:16:09;2.80;99.90
6724;DHT22;3399;52.530;13.304;2023-02-24T14:18:34;2.80;99.90
6724;DHT22;3399;52.530;13.304;2023-02-24T14:21:01;2.80;99.90
6724;DHT22;3399;52.530;13.304;2023-02-24T14:23:32;2.80;99.90
6724;DHT22;3399;52.530;13.304;2023-02-24T14:26:05;2.70;99.90
6724;DHT22;3399;52.530;13.304;2023-02-24T14:28:33;2.70;99.90
6724;DHT22;3399;52.530;13.304;2023-02-24T14:31:06;2.70;99.90
6724;DHT22;3399;52.530;13.304;2023-02-24T14:33:35;2.70;99.90
6724;DHT22;3399;52.530;13.304;2023-02-24T14:36:06;2.70;99.90
6724;DHT22;3399;52.530;13.304;2023-02-24T14:38:39;2.80;99.90
6724;DHT22;3399;52.530;13.304;2023-02-24T14:41:18;2.70;99.90
6724;DHT22;3399;52.530;13.304;2023-02-24T14:43:44;3.10;99.90
6724;DHT22;3399;52.530;13.304;2023-02-24T14:46:10;3.20;99.90
6724;DHT22;3399;52.530;13.304;2023-02-24T14:48:36;3.30;99.90
6724;DHT22;3399;52.530;13.304;2023-02-24T14:51:13;3.30;99.90
6724;DHT22;3399;52.530;13.304;2023-02-24T14:53:53;3.60;99.90
6724;DHT22;3399;52.530;13.304;2023-02-24T14:56:20;3.40;99.90
6724;DHT22;3399;52.530;13.304;2023-02-24T14:58:50;3.30;99.90
6724;DHT22;3399;52.530;13.304;2023-02-24T15:01:23;3.30;99.90
6724;DHT22;3399;52.530;13.304;2023-02-24T15:03:57;3.30;99.90
6724;DHT22;3399;52.530;13.304;2023-02-24T15:06:31;3.40;99.90
6724;DHT22;3399;52.530;13.304;2023-02-24T15:09:01;3.30;99.90
6724;DHT22;3399;52.530;13.304;2023-02-24T15:11:29;3.20;99.90
6724;DHT22;3399;52.530;13.304;2023-02-24T15:14:17;3.00;99.90
6724;DHT22;3399;52.530;13.304;2023-02-24T15:16:47;3.00;99.90
6724;DHT22;3399;52.530;13.304;2023-02-24T15:19:26;2.90;99.90
6724;DHT22;3399;52.530;13.304;2023-02-24T15:21:52;2.80;99.90
6724;DHT22;3399;52.530;13.304;2023-02-24T15:24:24;3.00;99.90
6724;DHT22;3399;52.530;13.304;2023-02-24T15:32:59;3.00;99.90
6724;DHT22;3399;52.530;13.304;2023-02-24T15:35:25;2.90;99.90
6724;DHT22;3399;52.530;13.304;2023-02-24T15:37:51;2.80;99.90
6724;DHT22;3399;52.530;13.304;2023-02-24T15:40:21;2.70;99.90
6724;DHT22;3399;52.530;13.304;2023-02-24T15:42:54;2.80;99.90
6724;DHT22;3399;52.530;13.304;2023-02-24T15:45:32;2.80;99.90
6724;DHT22;3399;52.530;13.304;2023-02-24T15:48:00;2.80;99.90
6724;DHT22;3399;52.530;13.304;2023-02-24T15:50:28;2.80;99.90
6724;DHT22;3399;52.530;13.304;2023-02-24T15:52:56;2.80;99.90
6724;DHT22;3399;52.530;13.304;2023-02-24T15:55:22;2.80;99.90
6724;DHT22;3399;52.530;13.304;2023-02-24T15:57:59;2.80;99.90
6724;DHT22;3399;52.530;13.304;2023-02-24T16:00:25;2.90;99.90
6724;DHT22;3399;52.530;13.304;2023-02-24T16:02:51;2.90;99.90
6724;DHT22;3399;52.530;13.304;2023-02-24T16:05:16;2.90;99.90
6724;DHT22;3399;52.530;13.304;2023-02-24T16:07:43;2.90;99.90
6724;DHT22;3399;52.530;13.304;2023-02-24T16:10:35;2.90;99.90
6724;DHT22;3399;52.530;13.304;2023-02-24T16:13:01;2.90;99.90
6724;DHT22;3399;52.530;13.304;2023-02-24T16:15:32;2.90;99.90
6724;DHT22;3399;52.530;13.304;2023-02-24T16:18:00;2.90;99.90
6724;DHT22;3399;52.530;13.304;2023-02-24T16:20:29;3.00;99.90
6724;DHT22;3399;52.530;13.304;2023-02-24T16:23:01;3.00;99.90
6724;DHT22;3399;52.530;13.304;2023-02-24T16:25:29;3.00;99.90
6724;DHT22;3399;52.530;13.304;2023-02-24T16:27:55;3.00;99.90
6724;DHT22;3399;52.530;13.304;2023-02-24T16:30:26;3.00;99.90
6724;DHT22;3399;52.530;13.304;2023-02-24T16:32:55;3.00;99.90
6724;DHT22;3399;52.530;13.304;2023-02-24T16:35:21;2.90;99.90
6724;DHT22;3399;52.530;13.304;2023-02-24T16:37:47;2.90;99.90
6724;DHT22;3399;52.530;13.304;2023-02-24T16:40:26;2.90;99.90
6724;DHT22;3399;52.530;13.304;2023-02-24T16:42:55;2.90;99.90
6724;DHT22;3399;52.530;13.304;2023-02-24T16:45:25;2.90;99.90
6724;DHT22;3399;52.530;13.304;2023-02-24T16:47:53;3.00;99.90
6724;DHT22;3399;52.530;13.304;2023-02-24T16:50:27;3.10;99.90
6724;DHT22;3399;52.530;13.304;2023-02-24T16:52:55;3.10;99.90
6724;DHT22;3399;52.530;13.304;2023-02-24T16:55:21;3.00;99.90
6724;DHT22;3399;52.530;13.304;2023-02-24T16:57:46;3.00;99.90
6724;DHT22;3399;52.530;13.304;2023-02-24T17:00:13;2.90;99.90
6724;DHT22;3399;52.530;13.304;2023-02-24T17:02:41;2.90;99.90
6724;DHT22;3399;52.530;13.304;2023-02-24T17:05:14;3.00;99.90
6724;DHT22;3399;52.530;13.304;2023-02-24T17:07:41;2.90;99.90
6724;DHT22;3399;52.530;13.304;2023-02-24T17:10:07;2.90;99.90
6724;DHT22;3399;52.530;13.304;2023-02-24T17:12:33;3.00;99.90
6724;DHT22;3399;52.530;13.304;2023-02-24T17:14:58;2.90;99.90
6724;DHT22;3399;52.530;13.304;2023-02-24T17:17:24;3.00;99.90
6724;DHT22;3399;52.530;13.304;2023-02-24T17:19:49;3.00;99.90
6724;DHT22;3399;52.530;13.304;2023-02-24T17:22:16;3.00;99.90
6724;DHT22;3399;52.530;13.304;2023-02-24T17:24:42;3.10;99.90
6724;DHT22;3399;52.530;13.304;2023-02-24T17:27:08;3.10;99.90
6724;DHT22;3399;52.530;13.304;2023-02-24T17:29:34;3.10;99.90
6724;DHT22;3399;52.530;13.304;2023-02-24T17:32:00;3.10;99.90
6724;DHT22;3399;52.530;13.304;2023-02-24T17:34:25;3.10;99.90
6724;DHT22;3399;52.530;13.304;2023-02-24T17:36:51;3.10;99.90
6724;DHT22;3399;52.530;13.304;2023-02-24T17:39:17;3.10;99.90
6724;DHT22;3399;52.530;13.304;2023-02-24T17:41:43;3.10;99.90
6724;DHT22;3399;52.530;13.304;2023-02-24T17:44:08;3.10;99.90
6724;DHT22;3399;52.530;13.304;2023-02-24T17:46:34;3.20;99.90
6724;DHT22;3399;52.530;13.304;2023-02-24T17:48:59;3.20;99.90
6724;DHT22;3399;52.530;13.304;2023-02-24T17:51:27;3.20;99.90
6724;DHT22;3399;52.530;13.304;2023-02-24T17:53:53;3.20;99.90
6724;DHT22;3399;52.530;13.304;2023-02-24T17:56:19;3.20;99.90
6724;DHT22;3399;52.530;13.304;2023-02-24T17:58:44;3.20;99.90
6724;DHT22;3399;52.530;13.304;2023-02-24T18:01:10;3.30;99.90
6724;DHT22;3399;52.530;13.304;2023-02-24T18:03:35;3.30;99.90
6724;DHT22;3399;52.530;13.304;2023-02-24T18:06:06;3.40;99.90
6724;DHT22;3399;52.530;13.304;2023-02-24T18:08:33;3.40;99.90
6724;DHT22;3399;52.530;13.304;2023-02-24T18:10:59;3.40;99.90